createdAt,value
2018-09-02T00:01:54.320Z,17.80
2018-09-02T00:04:21.610Z,17.78
2018-09-02T00:06:48.815Z,17.79
2018-09-02T00:09:16.119Z,17.67
2018-09-02T00:11:43.426Z,17.33
2018-09-02T00:14:10.736Z,17.32
2018-09-02T00:16:37.994Z,17.37
2018-09-02T00:19:05.267Z,17.29
2018-09-02T00:21:32.576Z,17.22
2018-09-02T00:23:59.902Z,17.26
2018-09-02T00:26:27.216Z,17.18
2018-09-02T00:28:54.468Z,17.22
2018-09-02T00:31:21.752Z,17.22
2018-09-02T00:33:49.048Z,17.24
2018-09-02T00:36:16.338Z,17.32
2018-09-02T00:38:43.678Z,17.38
2018-09-02T00:41:11.017Z,17.43
2018-09-02T00:43:38.259Z,17.27
2018-09-02T00:46:05.723Z,17.07
2018-09-02T00:48:32.968Z,16.97
2018-09-02T00:51:00.270Z,16.96
2018-09-02T00:53:27.677Z,17.00
2018-09-02T00:55:55.004Z,17.14
2018-09-02T00:58:22.289Z,17.13
2018-09-02T01:00:49.533Z,17.13
2018-09-02T01:03:18.583Z,17.16
2018-09-02T01:05:45.861Z,17.22
2018-09-02T01:08:13.069Z,17.23
2018-09-02T01:10:40.364Z,17.21
2018-09-02T01:13:07.685Z,17.13
2018-09-02T01:15:34.912Z,17.15
2018-09-02T01:18:02.262Z,17.01
2018-09-02T01:20:29.539Z,17.07
2018-09-02T01:22:56.942Z,17.05
2018-09-02T01:25:24.207Z,16.99
2018-09-02T01:27:51.558Z,16.94
2018-09-02T01:30:18.811Z,16.95
2018-09-02T01:32:46.146Z,17.07
2018-09-02T01:35:18.894Z,17.12
2018-09-02T01:37:46.209Z,17.13
2018-09-02T01:40:13.483Z,17.16
2018-09-02T01:42:40.885Z,17.19
2018-09-02T01:45:08.187Z,17.16
2018-09-02T01:47:35.445Z,17.15
2018-09-02T01:50:02.814Z,17.15
2018-09-02T01:52:30.034Z,17.16
2018-09-02T01:54:57.261Z,17.19
2018-09-02T01:57:24.579Z,17.19
2018-09-02T01:59:51.871Z,17.17
2018-09-02T02:02:19.108Z,17.11
2018-09-02T02:04:46.461Z,16.99
2018-09-02T02:07:13.684Z,16.96
2018-09-02T02:09:41.200Z,16.99
2018-09-02T02:12:08.481Z,17.04
2018-09-02T02:14:35.844Z,17.08
2018-09-02T02:17:03.080Z,17.13
2018-09-02T02:19:31.303Z,17.13
2018-09-02T02:21:58.576Z,17.14
2018-09-02T02:24:25.880Z,17.17
2018-09-02T02:26:53.243Z,17.20
2018-09-02T02:29:20.501Z,17.20
2018-09-02T02:31:47.730Z,17.19
2018-09-02T02:34:15.153Z,17.24
2018-09-02T02:36:42.451Z,17.25
2018-09-02T02:39:10.881Z,17.25
2018-09-02T02:41:38.384Z,17.21
2018-09-02T02:44:05.864Z,17.20
2018-09-02T02:46:33.361Z,16.96
2018-09-02T02:49:00.590Z,16.93
2018-09-02T02:51:27.900Z,16.79
2018-09-02T02:53:55.264Z,16.84
2018-09-02T02:56:22.570Z,16.90
2018-09-02T02:58:49.818Z,16.92
2018-09-02T03:01:17.189Z,16.95
2018-09-02T03:03:44.514Z,16.95
2018-09-02T03:06:11.865Z,16.89
2018-09-02T03:08:39.136Z,16.87
2018-09-02T03:11:06.422Z,16.82
2018-09-02T03:13:33.742Z,16.89
2018-09-02T03:16:01.088Z,16.84
2018-09-02T03:18:28.342Z,16.86
2018-09-02T03:20:55.609Z,16.83
2018-09-02T03:23:22.954Z,16.86
2018-09-02T03:25:50.313Z,16.86
2018-09-02T03:28:17.694Z,16.78
2018-09-02T03:30:45.082Z,16.82
2018-09-02T03:33:12.363Z,16.86
2018-09-02T03:35:39.640Z,16.80
2018-09-02T03:38:06.947Z,16.87
2018-09-02T03:40:34.209Z,16.90
2018-09-02T03:43:01.553Z,16.88
2018-09-02T03:45:28.812Z,16.84
2018-09-02T03:47:56.095Z,16.83
2018-09-02T03:50:23.387Z,16.86
2018-09-02T03:52:50.651Z,16.83
2018-09-02T03:55:17.995Z,16.77
2018-09-02T03:57:45.272Z,16.80
2018-09-02T04:00:12.571Z,16.85
2018-09-02T04:02:39.891Z,16.82
2018-09-02T04:05:07.226Z,16.84
2018-09-02T04:07:34.417Z,16.86
2018-09-02T04:10:01.732Z,16.85
2018-09-02T04:12:28.976Z,16.86
2018-09-02T04:14:56.409Z,16.86
2018-09-02T04:17:23.687Z,16.81
2018-09-02T04:19:50.970Z,16.87
2018-09-02T04:22:18.245Z,16.92
2018-09-02T04:24:45.563Z,16.87
2018-09-02T04:27:12.869Z,16.83
2018-09-02T04:29:40.161Z,16.86
2018-09-02T04:32:07.439Z,16.86
2018-09-02T04:34:34.685Z,16.80
2018-09-02T04:37:02.058Z,16.84
2018-09-02T04:39:29.367Z,16.83
2018-09-02T04:41:56.666Z,16.77
2018-09-02T04:44:23.959Z,16.73
2018-09-02T04:46:51.312Z,16.73
2018-09-02T04:49:18.611Z,16.79
2018-09-02T04:51:46.042Z,16.72
2018-09-02T04:54:13.283Z,16.71
2018-09-02T04:56:40.520Z,16.66
2018-09-02T04:59:07.778Z,16.70
2018-09-02T05:01:35.088Z,16.75
2018-09-02T05:04:02.391Z,16.70
2018-09-02T05:06:29.792Z,16.66
2018-09-02T05:08:57.000Z,16.72
2018-09-02T05:11:35.883Z,16.78
2018-09-02T05:14:08.173Z,16.75
2018-09-02T05:16:35.454Z,16.79
2018-09-02T05:19:02.729Z,16.87
2018-09-02T05:21:29.993Z,16.64
2018-09-02T05:23:57.319Z,16.60
2018-09-02T05:26:24.698Z,16.69
2018-09-02T05:28:52.107Z,16.75
2018-09-02T05:31:19.392Z,16.78
2018-09-02T05:33:46.676Z,16.69
2018-09-02T05:36:14.056Z,16.71
2018-09-02T05:38:41.348Z,16.67
2018-09-02T05:45:17.810Z,16.56
2018-09-02T05:47:45.096Z,16.37
2018-09-02T05:50:12.392Z,16.49
2018-09-02T05:52:39.686Z,16.57
2018-09-02T05:55:07.228Z,16.59
2018-09-02T05:57:34.732Z,16.67
2018-09-02T06:00:01.999Z,16.66
2018-09-02T06:02:29.280Z,16.75
2018-09-02T06:04:56.529Z,16.77
2018-09-02T06:07:23.866Z,16.82
2018-09-02T06:09:51.172Z,16.79
2018-09-02T06:15:11.286Z,16.73
2018-09-02T06:17:38.510Z,16.64
2018-09-02T06:20:05.776Z,16.66
2018-09-02T06:22:33.154Z,16.58
2018-09-02T06:25:00.477Z,16.55
2018-09-02T06:27:27.855Z,16.58
2018-09-02T06:29:55.185Z,16.63
2018-09-02T06:32:22.435Z,16.57
2018-09-02T06:34:49.786Z,16.53
2018-09-02T06:37:17.100Z,16.15
2018-09-02T06:39:44.302Z,15.74
2018-09-02T06:42:11.615Z,15.59
2018-09-02T06:44:38.886Z,15.59
2018-09-02T06:47:06.214Z,15.55
2018-09-02T06:49:33.532Z,15.75
2018-09-02T06:52:00.833Z,15.98
2018-09-02T06:54:28.204Z,15.93
2018-09-02T06:56:55.461Z,15.72
2018-09-02T06:59:22.710Z,15.72
2018-09-02T07:01:50.092Z,15.83
2018-09-02T07:04:17.471Z,16.05
2018-09-02T07:06:44.849Z,16.25
2018-09-02T07:09:12.089Z,16.25
2018-09-02T07:11:39.367Z,16.42
2018-09-02T07:14:06.634Z,16.57
2018-09-02T07:16:33.916Z,16.61
2018-09-02T07:19:01.225Z,16.79
2018-09-02T07:21:28.487Z,16.89
2018-09-02T07:23:55.824Z,16.97
2018-09-02T07:26:23.107Z,17.05
2018-09-02T07:28:50.407Z,17.08
2018-09-02T07:31:18.032Z,17.10
2018-09-02T07:33:45.303Z,16.96
2018-09-02T07:36:12.664Z,17.08
2018-09-02T07:38:40.002Z,17.18
2018-09-02T07:41:07.258Z,17.07
2018-09-02T07:43:34.578Z,17.14
2018-09-02T07:46:01.842Z,17.27
2018-09-02T07:48:29.170Z,17.34
2018-09-02T07:50:56.491Z,17.40
2018-09-02T07:53:23.755Z,17.34
2018-09-02T07:55:51.073Z,17.26
2018-09-02T07:58:18.368Z,17.35
2018-09-02T08:00:45.633Z,17.38
2018-09-02T08:03:12.917Z,17.39
2018-09-02T08:05:40.232Z,17.34
2018-09-02T08:08:07.499Z,17.28
2018-09-02T08:10:34.769Z,17.20
2018-09-02T08:13:02.085Z,17.26
2018-09-02T08:15:29.422Z,17.28
2018-09-02T08:17:56.712Z,17.22
2018-09-02T08:20:24.006Z,17.23
2018-09-02T08:22:51.406Z,17.33
2018-09-02T08:25:18.676Z,17.27
2018-09-02T08:27:47.395Z,17.29
2018-09-02T08:30:14.649Z,17.25
2018-09-02T08:32:41.900Z,17.29
2018-09-02T08:35:09.212Z,17.36
2018-09-02T08:37:36.447Z,17.33
2018-09-02T08:40:03.839Z,17.33
2018-09-02T08:42:31.128Z,17.30
2018-09-02T08:44:59.119Z,17.18
2018-09-02T08:47:26.355Z,17.18
2018-09-02T08:49:53.692Z,17.26
2018-09-02T08:52:20.969Z,17.31
2018-09-02T08:54:48.257Z,17.39
2018-09-02T08:57:15.535Z,17.34
2018-09-02T08:59:42.827Z,17.31
2018-09-02T09:02:10.091Z,17.32
2018-09-02T09:04:37.313Z,17.22
2018-09-02T09:07:04.794Z,17.21
2018-09-02T09:09:31.989Z,17.15
2018-09-02T09:11:59.303Z,17.04
2018-09-02T09:14:26.546Z,16.97
2018-09-02T09:16:53.936Z,16.98
2018-09-02T09:19:21.166Z,16.99
2018-09-02T09:21:48.489Z,17.05
2018-09-02T09:24:15.799Z,17.09
2018-09-02T09:26:43.122Z,16.98
2018-09-02T09:29:10.376Z,17.00
2018-09-02T09:31:37.605Z,17.10
2018-09-02T09:34:04.890Z,17.16
2018-09-02T09:36:32.184Z,17.22
2018-09-02T09:38:59.542Z,17.26
2018-09-02T09:41:26.934Z,17.31
2018-09-02T09:43:54.184Z,17.40
2018-09-02T09:46:21.499Z,17.53
2018-09-02T09:48:48.861Z,17.71
2018-09-02T09:51:16.108Z,17.73
2018-09-02T09:53:43.401Z,17.77
2018-09-02T09:56:10.683Z,17.81
2018-09-02T09:58:37.992Z,17.79
2018-09-02T10:01:05.232Z,17.88
2018-09-02T10:03:32.585Z,17.91
2018-09-02T10:06:01.623Z,17.86
2018-09-02T10:08:28.954Z,17.93
2018-09-02T10:10:56.341Z,17.90
2018-09-02T10:13:23.595Z,18.00
2018-09-02T10:15:50.895Z,18.01
2018-09-02T10:18:18.266Z,18.00
2018-09-02T10:20:45.416Z,17.89
2018-09-02T10:23:12.691Z,17.82
2018-09-02T10:25:39.983Z,17.63
2018-09-02T10:28:07.335Z,17.48
2018-09-02T10:30:34.673Z,17.58
2018-09-02T10:33:02.035Z,17.53
2018-09-02T10:35:29.360Z,17.40
2018-09-02T10:37:56.721Z,17.40
2018-09-02T10:40:24.001Z,17.42
2018-09-02T10:42:51.344Z,17.37
2018-09-02T10:45:18.674Z,17.41
2018-09-02T10:50:38.811Z,17.48
2018-09-02T10:53:06.019Z,17.36
2018-09-02T10:55:33.289Z,17.30
2018-09-02T10:58:00.581Z,17.37
2018-09-02T11:00:27.862Z,17.37
2018-09-02T11:02:55.185Z,17.42
2018-09-02T11:05:22.484Z,17.41
2018-09-02T11:07:49.813Z,17.45
2018-09-02T11:10:17.142Z,17.47
2018-09-02T11:12:44.423Z,17.34
2018-09-02T11:15:11.768Z,17.46
2018-09-02T11:17:39.075Z,17.60
2018-09-02T11:20:06.423Z,17.56
2018-09-02T11:22:33.689Z,17.62
2018-09-02T11:25:00.953Z,17.70
2018-09-02T11:27:28.280Z,17.55
2018-09-02T11:29:55.579Z,17.55
2018-09-02T11:32:22.846Z,17.49
2018-09-02T11:34:50.152Z,17.53
2018-09-02T11:37:17.448Z,17.58
2018-09-02T11:39:44.698Z,17.61
2018-09-02T11:42:11.953Z,17.58
2018-09-02T11:44:39.157Z,17.58
2018-09-02T11:47:06.458Z,17.60
2018-09-02T11:49:33.697Z,17.60
2018-09-02T11:52:01.019Z,17.54
2018-09-02T11:54:28.297Z,17.56
2018-09-02T11:56:55.593Z,17.38
2018-09-02T11:59:22.879Z,17.31
2018-09-02T12:01:50.213Z,17.27
2018-09-02T12:04:17.584Z,17.27
2018-09-02T12:06:44.831Z,17.21
2018-09-02T12:09:12.078Z,17.17
2018-09-02T12:11:39.367Z,17.27
2018-09-02T12:14:06.516Z,17.36
2018-09-02T12:16:33.850Z,17.27
2018-09-02T12:19:01.141Z,17.30
2018-09-02T12:21:28.438Z,17.28
2018-09-02T12:23:55.897Z,17.30
2018-09-02T12:26:23.164Z,17.37
2018-09-02T12:28:50.472Z,17.38
2018-09-02T12:31:17.745Z,17.33
2018-09-02T12:33:45.084Z,17.25
2018-09-02T12:36:12.336Z,17.28
2018-09-02T12:38:39.560Z,17.24
2018-09-02T12:41:06.820Z,17.26
2018-09-02T12:43:34.096Z,17.26
2018-09-02T12:46:01.508Z,17.18
2018-09-02T12:48:28.803Z,17.08
2018-09-02T12:50:56.628Z,17.01
2018-09-02T12:53:24.021Z,17.04
2018-09-02T12:55:54.495Z,16.97
2018-09-02T12:58:21.799Z,16.98
2018-09-02T13:00:49.093Z,16.99
2018-09-02T13:03:16.314Z,16.94
2018-09-02T13:05:43.603Z,16.93
2018-09-02T13:08:10.917Z,16.89
2018-09-02T13:10:38.234Z,16.83
2018-09-02T13:13:05.767Z,16.72
2018-09-02T13:15:33.066Z,16.68
2018-09-02T13:18:00.346Z,16.64
2018-09-02T13:20:27.606Z,16.65
2018-09-02T13:22:55.000Z,16.67
2018-09-02T13:25:22.311Z,16.69
2018-09-02T13:27:49.563Z,16.78
2018-09-02T13:30:16.809Z,16.79
2018-09-02T13:32:43.985Z,16.80
2018-09-02T13:35:11.282Z,16.78
2018-09-02T13:37:38.586Z,16.68
2018-09-02T13:40:06.384Z,16.73
2018-09-02T13:42:33.729Z,16.78
2018-09-02T13:45:01.037Z,16.78
2018-09-02T13:47:28.342Z,16.82
2018-09-02T13:49:55.921Z,16.81
2018-09-02T13:52:27.158Z,16.84
2018-09-02T13:54:56.335Z,16.79
2018-09-02T13:57:23.628Z,16.72
2018-09-02T13:59:50.872Z,16.65
2018-09-02T14:02:18.097Z,16.65
2018-09-02T14:04:45.334Z,16.67
2018-09-02T14:07:12.660Z,16.64
2018-09-02T14:09:39.932Z,16.61
2018-09-02T14:12:07.257Z,16.60
2018-09-02T14:14:34.470Z,16.53
2018-09-02T14:17:01.750Z,16.36
2018-09-02T14:19:29.071Z,16.44
2018-09-02T14:21:56.317Z,16.45
2018-09-02T14:24:23.637Z,16.32
2018-09-02T14:26:50.904Z,16.31
2018-09-02T14:29:18.237Z,16.35
2018-09-02T14:31:45.527Z,16.33
2018-09-02T14:34:12.804Z,16.39
2018-09-02T14:36:40.063Z,16.24
2018-09-02T14:39:09.638Z,16.29
2018-09-02T14:41:36.929Z,16.35
2018-09-02T14:44:04.239Z,16.29
2018-09-02T14:46:31.418Z,16.37
2018-09-02T14:48:58.637Z,16.39
2018-09-02T14:51:25.928Z,16.40
2018-09-02T14:53:53.131Z,16.41
2018-09-02T14:56:20.497Z,16.41
2018-09-02T14:58:47.759Z,16.46
2018-09-02T15:01:15.027Z,16.55
2018-09-02T15:03:42.297Z,16.55
2018-09-02T15:06:09.746Z,16.56
2018-09-02T15:08:37.148Z,16.56
2018-09-02T15:11:04.425Z,16.55
2018-09-02T15:13:32.150Z,16.57
2018-09-02T15:15:59.434Z,16.64
2018-09-02T15:18:26.745Z,16.67
2018-09-02T15:20:53.924Z,16.63
2018-09-02T15:23:21.252Z,16.64
2018-09-02T15:25:48.513Z,16.68
2018-09-02T15:28:15.821Z,16.51
2018-09-02T15:30:43.037Z,16.50
2018-09-02T15:33:10.335Z,16.53
2018-09-02T15:35:37.645Z,16.56
2018-09-02T15:38:04.923Z,16.58
2018-09-02T15:40:32.240Z,16.48
2018-09-02T15:42:59.590Z,16.47
2018-09-02T15:45:26.798Z,16.52
2018-09-02T15:47:54.135Z,16.61
2018-09-02T15:50:21.424Z,16.53
2018-09-02T15:52:48.815Z,16.56
2018-09-02T15:55:16.111Z,16.57
2018-09-02T15:57:43.437Z,16.52
2018-09-02T16:00:10.698Z,16.44
2018-09-02T16:02:38.026Z,16.42
2018-09-02T16:05:05.335Z,16.42
2018-09-02T16:07:32.665Z,16.49
2018-09-02T16:10:01.437Z,16.46
2018-09-02T16:12:29.069Z,16.40
2018-09-02T16:14:56.609Z,16.58
2018-09-02T16:17:23.899Z,16.59
2018-09-02T16:19:51.134Z,16.66
2018-09-02T16:22:18.392Z,16.66
2018-09-02T16:24:45.623Z,16.61
2018-09-02T16:27:12.948Z,16.69
2018-09-02T16:29:40.345Z,16.77
2018-09-02T16:32:07.497Z,16.78
2018-09-02T16:34:34.774Z,16.80
2018-09-02T16:37:02.146Z,16.82
2018-09-02T16:39:29.373Z,16.85
2018-09-02T16:41:56.574Z,16.84
2018-09-02T16:44:23.854Z,16.77
2018-09-02T16:46:51.093Z,16.58
2018-09-02T16:49:18.387Z,16.60
2018-09-02T16:51:45.691Z,16.55
2018-09-02T16:54:12.977Z,16.41
2018-09-02T16:56:40.190Z,16.45
2018-09-02T16:59:07.493Z,16.50
2018-09-02T17:01:34.743Z,16.58
2018-09-02T17:04:05.245Z,16.58
2018-09-02T17:06:32.407Z,16.52
2018-09-02T17:08:59.733Z,16.55
2018-09-02T17:11:26.986Z,16.48
2018-09-02T17:13:54.341Z,16.49
2018-09-02T17:16:21.642Z,16.52
2018-09-02T17:18:51.492Z,16.48
2018-09-02T17:21:18.803Z,16.51
2018-09-02T17:23:46.101Z,16.45
2018-09-02T17:26:13.479Z,16.35
2018-09-02T17:28:40.556Z,16.33
2018-09-02T17:31:07.844Z,16.34
2018-09-02T17:33:35.119Z,16.36
2018-09-02T17:36:02.359Z,16.37
2018-09-02T17:38:29.652Z,16.40
2018-09-02T17:40:56.926Z,16.36
2018-09-02T17:43:24.115Z,16.35
2018-09-02T17:45:51.462Z,16.29
2018-09-02T17:48:18.651Z,16.33
2018-09-02T17:50:45.877Z,16.33
2018-09-02T17:53:13.148Z,16.31
2018-09-02T17:55:40.803Z,16.30
2018-09-02T17:58:08.065Z,16.29
2018-09-02T18:00:38.907Z,16.33
2018-09-02T18:03:06.208Z,16.33
2018-09-02T18:05:33.429Z,16.29
2018-09-02T18:08:00.943Z,16.22
2018-09-02T18:10:28.244Z,16.21
2018-09-02T18:12:55.511Z,16.22
2018-09-02T18:15:22.731Z,16.26
2018-09-02T18:17:50.072Z,16.29
2018-09-02T18:20:17.367Z,16.20
2018-09-02T18:22:44.611Z,16.21
2018-09-02T18:25:11.893Z,16.26
2018-09-02T18:27:41.676Z,16.30
2018-09-02T18:30:08.986Z,16.27
2018-09-02T18:32:36.328Z,16.27
2018-09-02T18:35:03.628Z,16.26
2018-09-02T18:37:30.960Z,16.24
2018-09-02T18:39:58.211Z,16.23
2018-09-02T18:42:25.757Z,16.23
2018-09-02T18:44:53.089Z,16.24
2018-09-02T18:47:20.366Z,16.20
2018-09-02T18:49:47.688Z,16.18
2018-09-02T18:52:15.635Z,16.21
2018-09-02T18:54:42.987Z,16.23
2018-09-02T18:57:10.634Z,16.21
2018-09-02T18:59:38.147Z,16.21
2018-09-02T19:02:05.481Z,16.17
2018-09-02T19:04:32.791Z,16.19
2018-09-02T19:07:00.209Z,16.18
2018-09-02T19:09:27.454Z,16.21
2018-09-02T19:11:54.815Z,16.18
2018-09-02T19:14:22.269Z,16.22
2018-09-02T19:16:49.584Z,16.10
2018-09-02T19:19:16.882Z,16.12
2018-09-02T19:21:44.095Z,16.01
2018-09-02T19:24:11.349Z,16.01
2018-09-02T19:26:38.714Z,16.05
2018-09-02T19:29:06.105Z,16.10
2018-09-02T19:31:33.419Z,16.05
2018-09-02T19:34:00.721Z,16.00
2018-09-02T19:36:27.986Z,15.96
2018-09-02T19:38:55.357Z,15.98
2018-09-02T19:41:22.568Z,16.01
2018-09-02T19:43:49.900Z,16.01
2018-09-02T19:46:17.215Z,15.98
2018-09-02T19:48:44.476Z,16.00
2018-09-02T19:51:11.713Z,16.01
2018-09-02T19:53:38.907Z,15.98
2018-09-02T19:56:06.127Z,15.99
2018-09-02T19:58:33.420Z,15.99
2018-09-02T20:01:00.773Z,15.95
2018-09-02T20:03:28.195Z,15.95
2018-09-02T20:05:56.630Z,15.93
2018-09-02T20:08:23.984Z,15.94
2018-09-02T20:10:51.386Z,16.00
2018-09-02T20:13:18.703Z,16.01
2018-09-02T20:15:46.156Z,16.00
2018-09-02T20:18:13.463Z,16.01
2018-09-02T20:20:40.706Z,15.87
2018-09-02T20:23:07.954Z,15.88
2018-09-02T20:25:35.145Z,15.89
2018-09-02T20:28:02.449Z,15.90
2018-09-02T20:30:29.850Z,15.81
2018-09-02T20:32:57.143Z,15.68
2018-09-02T20:35:24.404Z,15.81
2018-09-02T20:37:51.657Z,15.84
2018-09-02T20:40:18.858Z,15.77
2018-09-02T20:42:46.150Z,15.77
2018-09-02T20:45:13.400Z,15.74
2018-09-02T20:47:40.704Z,15.78
2018-09-02T20:50:07.974Z,15.77
2018-09-02T20:52:35.212Z,15.76
2018-09-02T20:55:02.502Z,15.76
2018-09-02T20:57:29.783Z,15.77
2018-09-02T20:59:57.076Z,15.80
2018-09-02T21:02:24.434Z,15.81
2018-09-02T21:04:51.733Z,15.86
2018-09-02T21:07:18.980Z,15.78
2018-09-02T21:09:46.261Z,15.80
2018-09-02T21:12:13.573Z,15.81
2018-09-02T21:14:40.879Z,15.85
2018-09-02T21:17:08.244Z,15.88
2018-09-02T21:19:35.477Z,15.90
2018-09-02T21:22:02.737Z,15.87
2018-09-02T21:24:30.055Z,15.89
2018-09-02T21:26:57.313Z,15.85
2018-09-02T21:29:24.615Z,15.85
2018-09-02T21:31:51.847Z,15.87
2018-09-02T21:34:19.077Z,15.88
2018-09-02T21:36:46.371Z,15.92
2018-09-02T21:39:13.625Z,15.96
2018-09-02T21:41:40.895Z,15.95
2018-09-02T21:44:08.197Z,15.96
2018-09-02T21:46:35.462Z,15.96
2018-09-02T21:49:02.817Z,15.97
2018-09-02T21:51:30.122Z,15.96
2018-09-02T21:53:57.478Z,15.95
2018-09-02T21:56:24.692Z,15.90
2018-09-02T21:58:51.992Z,15.88
2018-09-02T22:01:19.269Z,15.87
2018-09-02T22:03:46.502Z,15.87
2018-09-02T22:06:13.743Z,15.82
2018-09-02T22:08:40.977Z,15.82
2018-09-02T22:11:08.221Z,15.81
2018-09-02T22:14:59.971Z,15.85
2018-09-02T22:17:27.268Z,15.74
2018-09-02T22:19:54.543Z,15.72
2018-09-02T22:22:21.829Z,15.76
2018-09-02T22:24:49.109Z,15.77
2018-09-02T22:27:16.377Z,15.73
2018-09-02T22:29:43.673Z,15.74
2018-09-02T22:32:10.978Z,15.76
2018-09-02T22:34:38.227Z,15.77
2018-09-02T22:37:05.592Z,15.74
2018-09-02T22:39:32.829Z,15.76
2018-09-02T22:42:00.115Z,15.80
2018-09-02T22:44:27.377Z,15.80
2018-09-02T22:46:54.622Z,15.87
2018-09-02T22:49:21.879Z,15.85
2018-09-02T22:51:49.125Z,15.85
2018-09-02T22:54:16.355Z,15.88
2018-09-02T22:56:43.621Z,15.90
2018-09-02T22:59:10.862Z,15.94
2018-09-02T23:01:38.173Z,15.85
2018-09-02T23:04:05.370Z,15.91
2018-09-02T23:06:32.676Z,15.91
2018-09-02T23:08:59.883Z,15.97
2018-09-02T23:11:27.135Z,15.97
2018-09-02T23:13:54.403Z,16.03
2018-09-02T23:16:21.671Z,15.98
2018-09-02T23:18:48.908Z,15.97
2018-09-02T23:21:16.185Z,15.93
2018-09-02T23:23:43.549Z,15.95
2018-09-02T23:26:10.860Z,15.99
2018-09-02T23:28:38.301Z,16.03
2018-09-02T23:31:05.528Z,16.01
2018-09-02T23:33:32.806Z,16.00
2018-09-02T23:36:00.020Z,16.00
2018-09-02T23:38:27.232Z,15.95
2018-09-02T23:40:54.530Z,15.99
2018-09-02T23:43:21.805Z,15.96
2018-09-02T23:45:49.127Z,15.92
2018-09-02T23:48:16.410Z,15.86
2018-09-02T23:50:43.666Z,15.94
2018-09-02T23:53:10.960Z,15.94
2018-09-02T23:55:38.267Z,15.90
2018-09-02T23:58:05.860Z,15.88
